Time;durP1;ratioP1;P1;durP2;ratioP2;P2;SDS_P1;SDS_P2;PMS_P1;PMS_P2;Temp;Humidity;BMP_temperature;BMP_pressure;BME280_temperature;BME280_humidity;BME280_pressure;Samples;Min_cycle;Max_cycle;Signal;HPM_P1;HPM_P2
2022/06/01 00:02:11;;;;;;;5.87;2.43;;;;;;;17.93;89.94;99219.38;5091724;28;20239;-82
2022/06/01 00:04:37;;;;;;;3.37;2.33;;;;;;;17.84;89.80;99219.34;5091454;28;20600;-82
2022/06/01 00:07:04;;;;;;;3.93;2.17;;;;;;;17.82;90.44;99218.69;5091539;28;20236;-77
2022/06/01 00:09:30;;;;;;;3.53;2.53;;;;;;;17.82;90.02;99229.03;5091753;28;20621;-81
2022/06/01 00:11:56;;;;;;;3.63;2.80;;;;;;;17.84;90.68;99232.28;5091435;28;20776;-82
2022/06/01 00:14:23;;;;;;;3.30;2.40;;;;;;;17.81;90.30;99229.19;5091367;28;20634;-77
2022/06/01 00:16:55;;;;;;;3.37;2.57;;;;;;;17.72;90.47;99220.56;5091308;28;20300;-77
2022/06/01 00:19:22;;;;;;;4.20;2.70;;;;;;;17.67;91.18;99225.38;5091573;28;20205;-77
2022/06/01 00:24:37;;;;;;;5.20;2.50;;;;;;;17.67;90.98;99229.72;5091183;28;20282;-81
2022/06/01 00:27:03;;;;;;;4.93;2.90;;;;;;;17.69;91.37;99226.03;5091085;28;20752;-81
2022/06/01 00:29:29;;;;;;;3.13;2.60;;;;;;;17.66;91.26;99228.94;5091333;28;20220;-78
2022/06/01 00:31:56;;;;;;;4.53;2.80;;;;;;;17.57;91.89;99219.47;5091179;28;20293;-81
2022/06/01 00:34:22;;;;;;;4.50;2.70;;;;;;;17.55;91.69;99211.88;5091175;28;20214;-81
2022/06/01 00:36:48;;;;;;;4.83;2.57;;;;;;;17.61;91.78;99210.47;5089733;28;20674;-78
2022/06/01 00:39:14;;;;;;;4.23;2.40;;;;;;;17.63;92.06;99213.72;5090936;28;20248;-78
2022/06/01 00:41:42;;;;;;;4.53;2.83;;;;;;;17.65;91.63;99206.59;5090750;28;20236;-79
2022/06/01 00:44:08;;;;;;;3.00;2.33;;;;;;;17.62;92.09;99206.91;5091090;28;20261;-78
2022/06/01 00:46:34;;;;;;;5.50;2.63;;;;;;;17.57;92.07;99203.97;5091039;28;20307;-78
2022/06/01 00:49:07;;;;;;;5.20;2.80;;;;;;;17.47;92.38;99191.16;5090766;28;20219;-78
2022/06/01 00:51:33;;;;;;;4.80;2.80;;;;;;;17.47;92.48;99198.09;5090931;28;20237;-78
2022/06/01 00:53:59;;;;;;;4.53;2.80;;;;;;;17.48;92.76;99194.53;5091026;28;20594;-82
2022/06/01 00:56:33;;;;;;;5.40;2.73;;;;;;;17.50;92.82;99197.78;5090612;28;20283;-82
2022/06/01 00:59:04;;;;;;;4.73;3.00;;;;;;;17.42;92.98;99186.44;5090858;28;20227;-78
2022/06/01 01:01:32;;;;;;;3.20;2.70;;;;;;;17.38;93.09;99190.28;5090718;28;20263;-79
2022/06/01 01:04:01;;;;;;;4.77;2.60;;;;;;;17.43;93.03;99195.00;5090661;28;20218;-82
2022/06/01 01:06:29;;;;;;;2.97;2.60;;;;;;;17.40;92.60;99198.72;5090373;28;20230;-82
2022/06/01 01:08:56;;;;;;;4.17;2.60;;;;;;;17.36;92.86;99194.78;5090702;28;20706;-79
2022/06/01 01:11:26;;;;;;;5.23;2.67;;;;;;;17.34;93.40;99196.72;5090814;28;20242;-82
2022/06/01 01:13:53;;;;;;;12.53;3.20;;;;;;;17.31;93.94;99189.28;5090489;28;20215;-82
2022/06/01 01:16:22;;;;;;;3.40;2.70;;;;;;;17.23;94.16;99178.88;5090450;28;20266;-81
2022/06/01 01:18:51;;;;;;;4.53;2.70;;;;;;;17.10;95.11;99183.63;5090436;28;20220;-78
2022/06/01 01:21:26;;;;;;;3.60;2.70;;;;;;;17.13;95.06;99180.75;5090447;28;20231;-82
2022/06/01 01:24:03;;;;;;;3.83;2.63;;;;;;;17.17;94.83;99185.47;5090277;28;20699;-82
2022/06/01 01:26:33;;;;;;;3.87;2.73;;;;;;;17.16;94.37;99186.44;5090216;28;20734;-78
2022/06/01 01:28:59;;;;;;;4.87;2.70;;;;;;;17.12;94.56;99181.72;5090273;28;20690;-82
2022/06/01 01:31:26;;;;;;;3.23;2.73;;;;;;;17.05;94.79;99191.03;5090356;28;20243;-82
2022/06/01 01:33:54;;;;;;;4.37;2.70;;;;;;;17.09;94.76;99194.94;5090223;28;20581;-82
2022/06/01 01:36:24;;;;;;;4.47;2.90;;;;;;;17.10;94.57;99196.53;5090302;28;20235;-83
2022/06/01 01:38:55;;;;;;;4.73;2.83;;;;;;;17.05;95.01;99201.38;5090163;28;20662;-82
2022/06/01 01:41:27;;;;;;;3.50;2.97;;;;;;;17.06;95.42;99200.41;5090027;28;20241;-78
2022/06/01 01:44:00;;;;;;;4.67;2.87;;;;;;;17.01;95.79;99200.03;5090120;28;20606;-82
2022/06/01 01:46:27;;;;;;;3.87;3.10;;;;;;;17.00;95.56;99195.84;5089903;28;20253;-78
2022/06/01 01:48:54;;;;;;;4.40;2.90;;;;;;;16.95;95.89;99198.84;5089738;28;20519;-82
2022/06/01 01:51:21;;;;;;;4.30;3.30;;;;;;;16.90;96.74;99196.72;5090088;28;20238;-78
2022/06/01 01:53:48;;;;;;;5.50;2.90;;;;;;;16.91;97.06;99198.34;5089709;28;20691;-82
2022/06/01 01:56:25;;;;;;;4.73;3.03;;;;;;;16.92;96.70;99192.19;5089898;28;20240;-81
2022/06/01 01:59:22;;;;;;;4.03;3.23;;;;;;;16.91;97.63;99182.84;5089855;28;20221;-78
2022/06/01 02:01:55;;;;;;;7.07;2.90;;;;;;;16.91;97.23;99188.00;5088030;28;20269;-82
2022/06/01 02:07:23;;;;;;;6.37;3.50;;;;;;;16.93;97.65;99180.94;5089748;28;20777;-81
2022/06/01 02:12:43;;;;;;;7.00;3.40;;;;;;;16.92;97.86;99179.28;5089619;28;20313;-82
2022/06/01 02:15:15;;;;;;;4.23;3.13;;;;;;;16.90;98.11;99175.22;5089432;28;20213;-78
2022/06/01 02:17:49;;;;;;;6.87;3.37;;;;;;;16.82;98.20;99183.75;5089763;28;20210;-82
2022/06/01 02:20:20;;;;;;;5.37;3.13;;;;;;;16.74;99.19;99176.69;5089380;28;20231;-82
2022/06/01 02:22:46;;;;;;;5.00;3.33;;;;;;;16.77;98.37;99174.81;5089389;28;20602;-82
2022/06/01 02:25:13;;;;;;;6.10;3.20;;;;;;;16.76;98.73;99179.16;5089207;28;20689;-78
2022/06/01 02:27:41;;;;;;;3.67;3.20;;;;;;;16.81;98.36;99184.69;5089453;28;20216;-78
2022/06/01 02:30:12;;;;;;;4.20;3.00;;;;;;;16.85;97.28;99193.78;5089194;28;20233;-82
2022/06/01 02:32:40;;;;;;;4.30;2.80;;;;;;;16.80;97.53;99190.00;5089528;28;20206;-82
2022/06/01 02:35:09;;;;;;;9.03;3.70;;;;;;;16.74;97.63;99188.78;5089056;28;20750;-78
2022/06/01 02:37:39;;;;;;;6.03;3.40;;;;;;;16.71;98.37;99194.25;5089602;28;20229;-82
2022/06/01 02:40:10;;;;;;;5.50;3.10;;;;;;;16.68;98.10;99197.13;5089335;28;20300;-82
2022/06/01 02:42:43;;;;;;;6.30;3.30;;;;;;;16.68;98.79;99197.94;5089103;28;20238;-78
2022/06/01 02:45:12;;;;;;;4.87;3.20;;;;;;;16.69;98.76;99207.28;5089062;28;20210;-78
2022/06/01 02:47:39;;;;;;;5.63;3.10;;;;;;;16.69;98.30;99203.91;5088847;28;20232;-79
2022/06/01 02:50:08;;;;;;;4.60;3.00;;;;;;;16.73;98.75;99206.06;5089161;28;20250;-82
2022/06/01 02:52:34;;;;;;;4.47;2.90;;;;;;;16.68;99.09;99212.63;5089138;28;20230;-83
2022/06/01 02:55:01;;;;;;;5.47;3.50;;;;;;;16.73;98.54;99216.38;5088972;28;20219;-82
2022/06/01 02:57:27;;;;;;;5.20;3.33;;;;;;;16.81;98.69;99215.66;5088789;28;20236;-78
2022/06/01 02:59:53;;;;;;;4.73;3.17;;;;;;;16.85;98.55;99213.63;5088198;28;20232;-78
2022/06/01 03:02:20;;;;;;;4.50;3.80;;;;;;;16.85;98.29;99214.44;5089011;28;20252;-78
2022/06/01 03:04:46;;;;;;;5.60;3.27;;;;;;;16.90;98.02;99219.97;5089014;28;20662;-81
2022/06/01 03:07:13;;;;;;;5.83;3.00;;;;;;;16.92;98.20;99220.63;5088755;28;20240;-82
2022/06/01 03:09:39;;;;;;;5.00;3.13;;;;;;;16.96;98.08;99221.16;5088959;28;20210;-78
2022/06/01 03:12:07;;;;;;;5.30;3.00;;;;;;;16.96;97.92;99227.13;5088552;28;20245;-78
2022/06/01 03:14:33;;;;;;;5.57;3.20;;;;;;;16.98;98.23;99222.59;5088666;28;20255;-79
2022/06/01 03:17:00;;;;;;;6.50;3.30;;;;;;;16.98;98.39;99214.84;5088671;28;20320;-79
2022/06/01 03:19:27;;;;;;;4.57;3.50;;;;;;;17.04;98.27;99217.81;5088701;28;20507;-81
2022/06/01 03:21:53;;;;;;;5.53;3.40;;;;;;;17.13;98.02;99206.56;5088313;28;20237;-81
2022/06/01 03:24:20;;;;;;;6.63;3.77;;;;;;;17.09;98.09;99215.59;5088686;28;20218;-80
2022/06/01 03:26:46;;;;;;;6.67;3.93;;;;;;;17.09;99.05;99221.56;5088286;28;20527;-82
2022/06/01 03:29:12;;;;;;;8.07;4.70;;;;;;;17.14;99.27;99221.13;5088410;28;20206;-79
2022/06/01 03:31:39;;;;;;;7.60;5.23;;;;;;;17.17;99.22;99213.88;5088491;28;20234;-82
2022/06/01 03:34:05;;;;;;;10.27;6.13;;;;;;;17.18;100.00;99215.50;5088527;28;20598;-80
2022/06/01 03:36:32;;;;;;;11.10;7.23;;;;;;;17.19;100.00;99211.13;5088308;28;20239;-83
2022/06/01 03:38:58;;;;;;;13.47;8.20;;;;;;;17.23;100.00;99217.66;5088799;28;20214;-82
2022/06/01 03:41:27;;;;;;;11.80;8.10;;;;;;;17.30;100.00;99213.47;5088046;28;20250;-81
2022/06/01 03:46:37;;;;;;;13.87;9.03;;;;;;;17.50;100.00;99221.06;5088605;28;20314;-79
2022/06/01 03:49:04;;;;;;;14.53;8.83;;;;;;;17.55;100.00;99221.41;5088262;28;20214;-80
2022/06/01 03:51:30;;;;;;;15.17;10.00;;;;;;;17.54;100.00;99218.03;5088416;28;20242;-81
2022/06/01 03:53:57;;;;;;;16.40;9.07;;;;;;;17.67;100.00;99220.19;5088100;28;20693;-81
2022/06/01 03:56:23;;;;;;;14.10;9.13;;;;;;;17.54;100.00;99217.19;5088020;28;20238;-78
2022/06/01 03:58:50;;;;;;;15.57;8.73;;;;;;;17.52;100.00;99226.91;5088379;28;20402;-78
2022/06/01 04:01:17;;;;;;;11.90;8.10;;;;;;;17.51;100.00;99220.09;5087905;28;20234;-79
2022/06/01 04:03:44;;;;;;;13.27;8.33;;;;;;;17.55;100.00;99226.59;5088002;28;20207;-80
2022/06/01 04:06:10;;;;;;;15.00;8.13;;;;;;;17.52;100.00;99226.91;5088084;28;20230;-81
2022/06/01 04:08:36;;;;;;;10.90;7.60;;;;;;;17.57;100.00;99229.81;5088208;28;20221;-78
2022/06/01 04:11:03;;;;;;;12.37;7.57;;;;;;;17.57;100.00;99229.81;5088488;28;20234;-81
2022/06/01 04:13:30;;;;;;;9.27;6.97;;;;;;;17.69;100.00;99227.81;5091583;28;20221;-78
2022/06/01 04:15:57;;;;;;;11.03;7.80;;;;;;;17.70;100.00;99219.88;5091299;28;20282;-78
2022/06/01 04:18:23;;;;;;;13.50;7.90;;;;;;;17.82;100.00;99217.88;5091437;28;20218;-81
2022/06/01 04:20:53;;;;;;;10.13;7.80;;;;;;;17.86;100.00;99225.19;5091095;28;20234;-78
2022/06/01 04:23:19;;;;;;;11.77;7.47;;;;;;;17.85;100.00;99218.38;5091171;28;20214;-79
2022/06/01 04:25:45;;;;;;;12.57;6.53;;;;;;;17.81;100.00;99224.84;5091192;28;20234;-82
2022/06/01 04:28:12;;;;;;;10.80;7.47;;;;;;;17.79;100.00;99223.34;5091172;28;20225;-78
2022/06/01 04:30:39;;;;;;;13.80;8.47;;;;;;;17.92;100.00;99228.09;5091279;28;20227;-81
2022/06/01 04:33:06;;;;;;;12.90;8.87;;;;;;;18.14;100.00;99219.78;5091074;28;20210;-79
2022/06/01 04:35:32;;;;;;;13.73;9.13;;;;;;;18.19;100.00;99234.88;5090934;28;20206;-81
2022/06/01 04:38:12;;;;;;;13.07;8.40;;;;;;;18.32;100.00;99230.88;5091135;28;20210;-81
2022/06/01 04:40:39;;;;;;;12.33;8.67;;;;;;;18.45;100.00;99224.44;5090544;28;20236;-78
2022/06/01 04:43:05;;;;;;;12.37;8.97;;;;;;;18.64;100.00;99238.88;5091103;28;20222;-79
2022/06/01 04:45:32;;;;;;;13.60;9.90;;;;;;;18.90;100.00;99233.59;5090961;28;20691;-81
2022/06/01 04:47:58;;;;;;;14.17;9.30;;;;;;;19.12;99.97;99235.56;5091265;28;20211;-81
2022/06/01 04:50:24;;;;;;;17.23;9.47;;;;;;;19.37;100.00;99240.72;5091070;28;20217;-82
2022/06/01 04:52:50;;;;;;;15.73;10.00;;;;;;;19.64;99.18;99236.97;5090880;28;20211;-82
2022/06/01 04:55:17;;;;;;;14.80;10.20;;;;;;;19.87;97.15;99237.13;5090851;28;20246;-81
2022/06/01 04:57:43;;;;;;;15.17;9.33;;;;;;;20.10;96.19;99240.59;5090970;28;20653;-81
2022/06/01 05:00:10;;;;;;;13.10;8.37;;;;;;;20.32;94.89;99251.19;5090525;28;20564;-79
2022/06/01 05:02:38;;;;;;;16.20;9.27;;;;;;;20.51;93.62;99250.78;5090707;28;20240;-81
2022/06/01 05:05:05;;;;;;;13.80;9.30;;;;;;;20.75;93.03;99249.88;5090559;28;20263;-81
2022/06/01 05:07:31;;;;;;;12.67;8.67;;;;;;;21.00;92.30;99250.50;5090689;28;20237;-80
2022/06/01 05:09:57;;;;;;;11.73;8.37;;;;;;;21.07;89.45;99249.81;5090722;28;20638;-80
2022/06/01 05:12:23;;;;;;;11.40;8.00;;;;;;;21.30;90.54;99261.00;5090625;28;20234;-82
2022/06/01 05:14:49;;;;;;;12.13;7.90;;;;;;;21.40;89.18;99260.78;5090523;28;20219;-83
2022/06/01 05:17:15;;;;;;;14.57;8.10;;;;;;;21.60;88.98;99264.47;5090482;28;20241;-83
2022/06/01 05:19:42;;;;;;;13.60;8.20;;;;;;;21.89;89.60;99271.50;5090437;28;20219;-82
2022/06/01 05:22:08;;;;;;;12.80;7.67;;;;;;;22.17;88.66;99273.53;5090191;28;20621;-82
2022/06/01 05:24:34;;;;;;;10.63;7.40;;;;;;;22.34;84.86;99284.53;5089719;28;20669;-80
2022/06/01 05:27:01;;;;;;;10.20;7.00;;;;;;;22.31;83.75;99287.50;5090265;28;20237;-82
2022/06/01 05:29:28;;;;;;;10.10;6.28;;;;;;;22.36;85.27;99285.16;5090303;28;20213;-80
2022/06/01 05:31:54;;;;;;;7.87;6.10;;;;;;;22.37;83.37;99278.97;5090031;28;20238;-82
2022/06/01 05:34:21;;;;;;;8.07;5.77;;;;;;;22.45;83.00;99280.66;5090324;28;20233;-81
2022/06/01 05:36:48;;;;;;;7.25;5.20;;;;;;;22.68;84.21;99291.75;5090095;28;20241;-82
2022/06/01 05:39:14;;;;;;;6.53;5.00;;;;;;;22.88;82.47;99296.38;5090284;28;20703;-80
2022/06/01 05:41:40;;;;;;;8.85;5.95;;;;;;;23.05;82.66;99287.34;5090257;28;20267;-82
2022/06/01 05:44:07;;;;;;;8.95;5.75;;;;;;;23.01;79.99;99288.72;5090182;28;20841;-82
2022/06/01 05:46:35;;;;;;;7.95;6.10;;;;;;;23.08;79.96;99286.97;5090018;28;20234;-82
2022/06/01 05:49:01;;;;;;;9.27;5.72;;;;;;;23.31;79.54;99296.41;5090266;28;20285;-83
2022/06/01 05:51:27;;;;;;;10.82;5.60;;;;;;;23.25;76.50;99303.97;5089719;28;20233;-80
2022/06/01 05:53:54;;;;;;;9.13;5.60;;;;;;;23.38;77.26;99294.63;5089851;28;20213;-81
2022/06/01 05:56:20;;;;;;;11.00;6.10;;;;;;;23.38;77.00;99299.84;5089582;28;20256;-80
2022/06/01 05:58:48;;;;;;;8.65;5.95;;;;;;;23.60;76.80;99298.03;5089796;28;20233;-80
2022/06/01 06:01:14;;;;;;;7.55;6.20;;;;;;;23.87;77.01;99301.66;5089890;28;20658;-82
2022/06/01 06:03:41;;;;;;;13.80;6.32;;;;;;;23.98;74.68;99293.28;5089812;28;20608;-82
2022/06/01 06:06:13;;;;;;;9.43;6.30;;;;;;;24.10;74.72;99293.53;5089874;28;20281;-83
2022/06/01 06:08:41;;;;;;;9.50;6.32;;;;;;;24.09;72.81;99300.56;5089741;28;20206;-80
2022/06/01 06:11:08;;;;;;;13.10;6.75;;;;;;;24.36;75.46;99305.94;5089537;28;20257;-83
2022/06/01 06:13:35;;;;;;;10.07;7.07;;;;;;;24.40;71.13;99297.50;5089519;28;20205;-82
2022/06/01 06:16:01;;;;;;;9.30;6.97;;;;;;;24.60;73.66;99297.59;5089638;28;20234;-82
2022/06/01 06:18:27;;;;;;;11.00;6.90;;;;;;;24.74;72.95;99297.63;5089540;28;20213;-82
2022/06/01 06:20:53;;;;;;;9.18;6.13;;;;;;;24.95;71.30;99294.84;5089512;28;20237;-80
2022/06/01 06:23:20;;;;;;;9.20;6.10;;;;;;;25.32;75.16;99295.31;5089472;28;20658;-81
2022/06/01 06:25:46;;;;;;;8.93;6.25;;;;;;;25.58;70.34;99301.56;5089105;28;20257;-83
2022/06/01 06:28:14;;;;;;;9.07;6.40;;;;;;;25.50;68.25;99303.38;5089263;28;20612;-82
2022/06/01 06:30:40;;;;;;;8.93;6.70;;;;;;;25.51;69.15;99294.53;5089120;28;20250;-80
2022/06/01 06:33:07;;;;;;;9.23;6.40;;;;;;;25.79;71.93;99301.31;5089247;28;20209;-82
2022/06/01 06:35:34;;;;;;;8.82;5.80;;;;;;;26.04;67.78;99298.09;5087896;28;20240;-80
2022/06/01 06:38:01;;;;;;;12.60;6.57;;;;;;;26.14;67.19;99293.22;5089506;28;20214;-83
2022/06/01 06:40:27;;;;;;;12.23;6.18;;;;;;;26.22;66.59;99295.59;5089311;28;20613;-79
2022/06/01 06:42:54;;;;;;;8.93;6.03;;;;;;;26.28;67.88;99292.16;5089143;28;20476;-82
2022/06/01 06:45:21;;;;;;;9.77;6.43;;;;;;;26.17;66.20;99292.78;5089248;28;20216;-83
2022/06/01 06:47:48;;;;;;;10.73;6.60;;;;;;;26.43;67.26;99302.38;5089122;28;20210;-80
2022/06/01 06:50:16;;;;;;;9.60;6.45;;;;;;;26.24;65.53;99304.06;5089180;28;20210;-80
2022/06/01 06:52:42;;;;;;;8.15;6.25;;;;;;;26.57;69.03;99305.78;5089164;28;20210;-83
2022/06/01 06:55:09;;;;;;;12.82;6.00;;;;;;;26.83;67.87;99297.75;5089005;28;20682;-80
2022/06/01 06:57:35;;;;;;;8.88;6.00;;;;;;;27.21;66.62;99299.53;5088922;28;20246;-83
2022/06/01 07:00:05;;;;;;;7.20;5.63;;;;;;;27.39;63.49;99300.63;5088665;28;20707;-80
2022/06/01 07:02:31;;;;;;;8.30;5.47;;;;;;;27.70;64.73;99297.91;5088986;28;20623;-80
2022/06/01 07:04:58;;;;;;;10.75;5.90;;;;;;;27.77;61.89;99293.38;5088818;28;20236;-83
2022/06/01 07:07:24;;;;;;;9.93;5.80;;;;;;;27.60;59.97;99297.59;5088815;28;20245;-82
2022/06/01 07:09:50;;;;;;;8.20;6.10;;;;;;;27.54;60.86;99298.44;5088784;28;20225;-82
2022/06/01 07:12:16;;;;;;;8.27;5.45;;;;;;;27.41;63.72;99299.38;5088999;28;20237;-83
2022/06/01 07:14:42;;;;;;;9.70;6.10;;;;;;;27.52;60.90;99305.78;5088639;28;20396;-79
2022/06/01 07:17:08;;;;;;;8.82;6.38;;;;;;;27.45;62.59;99299.75;5088656;28;20726;-83
2022/06/01 07:19:35;;;;;;;11.77;5.97;;;;;;;27.68;59.54;99299.13;5088512;28;20214;-83
2022/06/01 07:22:01;;;;;;;8.38;5.95;;;;;;;27.62;60.09;99305.25;5088897;28;20237;-79
2022/06/01 07:24:28;;;;;;;8.00;5.90;;;;;;;27.77;60.21;99303.09;5088598;28;20209;-83
2022/06/01 07:26:54;;;;;;;8.23;5.43;;;;;;;28.04;61.58;99303.63;5088886;28;20234;-80
2022/06/01 07:29:20;;;;;;;9.07;5.57;;;;;;;28.45;61.08;99299.56;5088550;28;20209;-80
2022/06/01 07:31:48;;;;;;;14.77;6.10;;;;;;;28.64;57.85;99303.75;5088612;28;20238;-80
2022/06/01 07:34:14;;;;;;;10.35;5.63;;;;;;;27.91;59.25;99306.44;5088496;28;20671;-82
2022/06/01 07:36:41;;;;;;;9.45;5.60;;;;;;;27.63;62.13;99306.84;5088596;28;20229;-82
2022/06/01 07:44:36;;;;;;;10.90;5.55;;;;;;;28.14;59.70;99305.78;5043540;28;20220;-79
2022/06/01 07:47:03;;;;;;;9.80;5.57;;;;;;;28.15;61.13;99302.91;5090584;28;20229;-79
2022/06/01 07:49:29;;;;;;;11.93;5.85;;;;;;;28.32;57.82;99302.31;5091860;28;20203;-79
2022/06/01 07:51:56;;;;;;;10.35;5.40;;;;;;;28.43;59.73;99302.41;5092163;28;20234;-82
2022/06/01 07:54:23;;;;;;;8.70;6.18;;;;;;;28.96;60.17;99300.88;5091882;28;20213;-80
2022/06/01 07:56:50;;;;;;;10.35;6.07;;;;;;;29.37;61.02;99301.88;5091504;28;20230;-80
2022/06/01 07:59:16;;;;;;;7.78;5.40;;;;;;;29.70;59.76;99298.72;5091596;28;20221;-80
2022/06/01 08:01:43;;;;;;;8.65;5.90;;;;;;;30.00;53.02;99293.25;5091906;28;20260;-80
2022/06/01 08:04:10;;;;;;;9.48;5.30;;;;;;;30.19;55.23;99298.38;5091596;28;20209;-83
2022/06/01 08:06:38;;;;;;;9.77;5.78;;;;;;;30.20;55.47;99289.44;5091457;28;20230;-83
2022/06/01 08:09:05;;;;;;;9.52;5.28;;;;;;;30.42;52.89;99293.03;5091664;28;20217;-80
2022/06/01 08:14:16;;;;;;;8.07;5.00;;;;;;;30.58;53.75;99285.44;5091563;28;20205;-79
2022/06/01 08:16:44;;;;;;;11.32;6.30;;;;;;;30.18;54.14;99289.66;5091433;28;20700;-79
2022/06/01 08:19:11;;;;;;;8.82;6.10;;;;;;;30.36;56.81;99287.91;5091505;28;20209;-79
2022/06/01 08:21:38;;;;;;;7.40;5.43;;;;;;;30.58;55.53;99285.44;5091193;28;20237;-83
2022/06/01 08:24:06;;;;;;;8.98;5.90;;;;;;;30.77;53.25;99286.81;5091184;28;20209;-80
2022/06/01 08:26:32;;;;;;;7.60;5.63;;;;;;;31.18;58.33;99284.84;5091381;28;20630;-82
2022/06/01 08:28:59;;;;;;;9.82;5.70;;;;;;;31.43;54.53;99286.31;5091383;28;20600;-83
2022/06/01 08:31:27;;;;;;;8.25;5.60;;;;;;;30.98;50.48;99290.63;5091003;28;20458;-83
2022/06/01 08:33:53;;;;;;;8.98;5.50;;;;;;;31.14;52.41;99291.66;5091479;28;20304;-80
2022/06/01 08:36:19;;;;;;;7.82;5.07;;;;;;;31.19;52.92;99289.13;5091012;28;20234;-79
2022/06/01 08:38:45;;;;;;;8.65;5.32;;;;;;;31.35;55.83;99290.16;5091223;28;20214;-80
2022/06/01 08:41:14;;;;;;;8.13;5.60;;;;;;;31.49;50.78;99295.91;5090894;28;20241;-80
2022/06/01 08:43:43;;;;;;;10.82;5.78;;;;;;;30.97;50.48;99289.00;5091441;28;20206;-79
2022/06/01 08:46:11;;;;;;;9.35;5.43;;;;;;;31.09;53.20;99291.59;5091053;28;20237;-83
2022/06/01 08:48:42;;;;;;;9.63;5.28;;;;;;;31.54;51.38;99293.34;5090955;28;20214;-80
2022/06/01 08:51:09;;;;;;;11.68;5.55;;;;;;;31.64;53.01;99290.84;5090595;28;20241;-83
2022/06/01 08:53:36;;;;;;;9.98;5.53;;;;;;;31.87;53.26;99289.03;5091088;28;20210;-83
2022/06/01 08:56:09;;;;;;;7.47;5.55;;;;;;;31.80;49.59;99287.34;5090790;28;20230;-81
2022/06/01 08:58:42;;;;;;;9.80;5.90;;;;;;;31.70;52.96;99292.50;5089812;28;20717;-83
2022/06/01 09:01:17;;;;;;;8.23;5.90;;;;;;;31.63;50.05;99296.38;5090865;28;20229;-82
2022/06/01 09:03:50;;;;;;;10.27;6.00;;;;;;;31.78;51.19;99289.44;5090802;28;20209;-80
2022/06/01 09:06:25;;;;;;;7.20;5.80;;;;;;;31.86;50.47;99285.59;5090476;28;20241;-80
2022/06/01 09:08:55;;;;;;;8.57;5.30;;;;;;;32.22;51.94;99278.88;5090716;28;20719;-80
2022/06/01 09:11:28;;;;;;;7.43;5.43;;;;;;;32.19;51.57;99279.38;5090492;28;20233;-80
2022/06/01 09:14:02;;;;;;;10.20;5.50;;;;;;;31.74;50.99;99277.75;5090552;28;20217;-82
2022/06/01 09:16:32;;;;;;;7.25;5.28;;;;;;;31.45;53.94;99274.47;5090430;28;20792;-82
2022/06/01 09:18:59;;;;;;;8.88;5.00;;;;;;;31.77;50.14;99282.56;5090955;28;20214;-83
2022/06/01 09:24:15;;;;;;;9.05;5.00;;;;;;;32.41;54.34;99281.22;5090319;28;20286;-83
2022/06/01 09:26:55;;;;;;;8.35;5.90;;;;;;;32.52;52.77;99277.63;5090147;28;20723;-79
2022/06/01 09:29:25;;;;;;;6.50;5.45;;;;;;;32.81;50.40;99278.16;5090622;28;20217;-83
2022/06/01 09:31:57;;;;;;;6.78;4.93;;;;;;;32.51;49.65;99278.69;5090534;28;20303;-82
2022/06/01 09:34:30;;;;;;;5.45;4.55;;;;;;;31.63;52.94;99281.31;5090402;28;20615;-83
2022/06/01 09:37:05;;;;;;;8.98;4.90;;;;;;;31.69;57.46;99284.81;5090170;28;20299;-80
2022/06/01 09:39:33;;;;;;;7.70;4.80;;;;;;;31.40;51.91;99277.03;5090174;28;20209;-80
2022/06/01 09:42:12;;;;;;;7.15;5.10;;;;;;;31.80;51.17;99282.06;5090209;28;20242;-84
2022/06/01 09:44:44;;;;;;;6.25;5.03;;;;;;;31.79;51.71;99280.47;5090238;28;20609;-83
2022/06/01 09:47:22;;;;;;;6.63;5.25;;;;;;;32.12;56.44;99281.44;5090100;28;20230;-83
2022/06/01 09:49:53;;;;;;;7.95;5.97;;;;;;;31.96;54.01;99271.72;5090186;28;20209;-80
2022/06/01 09:52:25;;;;;;;8.73;6.07;;;;;;;31.87;54.08;99265.22;5090154;28;20241;-82
2022/06/01 09:54:55;;;;;;;7.97;5.95;;;;;;;31.92;54.11;99267.97;5089956;28;20212;-80
2022/06/01 09:57:26;;;;;;;10.25;5.72;;;;;;;31.84;51.18;99276.28;5089847;28;20245;-83
2022/06/01 10:08:19;;;;;;;6.57;4.55;;;;;;;32.20;48.43;99265.13;5089842;28;20204;-80
2022/06/01 10:10:58;;;;;;;7.65;5.82;;;;;;;32.32;50.53;99270.28;5089469;28;20747;-81
2022/06/01 10:13:31;;;;;;;11.13;5.68;;;;;;;32.35;56.92;99261.00;5089643;28;20323;-83
2022/06/01 10:16:00;;;;;;;7.70;5.60;;;;;;;31.77;49.45;99261.41;5089314;28;20234;-79
2022/06/01 10:18:31;;;;;;;7.60;5.68;;;;;;;31.92;52.14;99258.19;5089472;28;20299;-82
2022/06/01 10:21:01;;;;;;;8.02;5.90;;;;;;;32.30;52.51;99263.63;5089828;28;20233;-81
2022/06/01 10:23:35;;;;;;;6.97;5.78;;;;;;;32.45;55.45;99255.84;5089450;28;20217;-84
2022/06/01 10:26:09;;;;;;;9.32;5.35;;;;;;;32.57;51.04;99253.06;5089672;28;20233;-81
2022/06/01 10:28:40;;;;;;;6.50;4.70;;;;;;;32.48;50.03;99255.38;5089576;28;20206;-80
2022/06/01 10:31:17;;;;;;;6.95;4.40;;;;;;;32.16;47.91;99252.63;5089638;28;20377;-83
2022/06/01 10:33:47;;;;;;;5.93;4.43;;;;;;;32.76;49.84;99251.66;5089446;28;20194;-83
2022/06/01 10:36:16;;;;;;;8.82;4.90;;;;;;;32.48;51.69;99255.38;5089239;28;20283;-81
2022/06/01 10:38:49;;;;;;;6.78;5.53;;;;;;;31.96;53.07;99242.63;5089515;28;20222;-83
2022/06/01 10:41:21;;;;;;;7.82;5.05;;;;;;;32.08;49.58;99245.91;5089144;28;20638;-81
2022/06/01 10:43:54;;;;;;;10.23;5.18;;;;;;;32.39;51.20;99243.59;5089189;28;20213;-83
2022/06/01 10:46:41;;;;;;;6.80;4.60;;;;;;;32.19;49.69;99242.34;5089128;28;20759;-80
2022/06/01 10:49:31;;;;;;;8.18;4.90;;;;;;;32.11;50.44;99245.41;5089046;28;20266;-83
2022/06/01 10:52:07;;;;;;;7.70;4.78;;;;;;;32.15;48.65;99241.25;5089107;28;20249;-83
2022/06/01 10:54:41;;;;;;;5.63;4.45;;;;;;;31.97;50.40;99246.84;5089153;28;20239;-80
2022/06/01 10:57:10;;;;;;;8.85;4.65;;;;;;;32.33;48.99;99241.97;5088970;28;20668;-83
2022/06/01 10:59:38;;;;;;;7.10;4.88;;;;;;;32.66;49.91;99236.44;5088776;28;20275;-80
2022/06/01 11:02:13;;;;;;;6.65;4.28;;;;;;;32.69;46.23;99235.94;5088892;28;20226;-81
2022/06/01 11:05:02;;;;;;;6.55;4.18;;;;;;;32.39;48.54;99235.66;5089018;28;20209;-83
2022/06/01 11:07:49;;;;;;;7.05;4.72;;;;;;;32.54;47.72;99227.88;5088844;28;20359;-80
2022/06/01 11:10:24;;;;;;;5.50;4.70;;;;;;;32.51;51.19;99227.59;5088792;28;20210;-80
2022/06/01 11:13:03;;;;;;;5.60;4.07;;;;;;;32.32;46.87;99224.47;5088714;28;20217;-83
2022/06/01 11:15:37;;;;;;;6.88;4.10;;;;;;;32.48;47.25;99228.88;5089167;28;20292;-83
2022/06/01 11:18:26;;;;;;;8.82;4.22;;;;;;;32.28;45.42;99223.38;5088940;28;20248;-80
2022/06/01 11:21:04;;;;;;;5.50;4.10;;;;;;;32.27;45.17;99224.44;5088005;28;20240;-82
2022/06/01 11:23:46;;;;;;;8.05;4.57;;;;;;;32.18;46.71;99222.22;5088879;28;20212;-83
2022/06/01 11:26:26;;;;;;;4.90;4.32;;;;;;;32.58;49.69;99229.00;5088730;28;20614;-80
2022/06/01 11:29:12;;;;;;;7.43;3.72;;;;;;;32.92;44.78;99228.72;5088626;28;20212;-80
2022/06/01 11:31:40;;;;;;;7.55;3.70;;;;;;;33.04;46.31;99226.69;5088456;28;20397;-80
2022/06/01 11:34:12;;;;;;;4.45;3.72;;;;;;;32.15;44.72;99219.28;5088666;28;20225;-83
2022/06/01 11:36:48;;;;;;;5.40;4.03;;;;;;;31.90;46.52;99215.31;5088653;28;20270;-79
2022/06/01 11:39:25;;;;;;;6.47;3.92;;;;;;;31.82;45.91;99221.00;5088751;28;20655;-83
2022/06/01 11:41:59;;;;;;;6.00;4.10;;;;;;;32.25;49.79;99214.88;5088548;28;20232;-80
2022/06/01 11:44:28;;;;;;;4.78;3.88;;;;;;;32.29;45.61;99203.78;5088442;28;20292;-82
2022/06/01 11:46:59;;;;;;;6.13;3.95;;;;;;;32.35;44.26;99208.09;5088536;28;20626;-83
2022/06/01 11:49:33;;;;;;;4.60;3.80;;;;;;;32.59;46.45;99204.09;5088589;28;20285;-80
2022/06/01 11:52:16;;;;;;;5.95;3.85;;;;;;;32.68;43.54;99207.09;5088290;28;20724;-83
2022/06/01 11:54:42;;;;;;;7.13;4.00;;;;;;;32.57;42.98;99203.56;5088429;28;20564;-80
2022/06/01 11:57:23;;;;;;;6.93;3.80;;;;;;;32.75;44.88;99204.22;5088062;28;20237;-84
2022/06/01 11:59:54;;;;;;;6.65;3.83;;;;;;;32.13;44.24;99198.38;5088332;28;20216;-80
2022/06/01 12:02:40;;;;;;;6.43;4.15;;;;;;;32.01;43.59;99197.72;5088029;28;20237;-80
2022/06/01 12:05:11;;;;;;;4.82;3.90;;;;;;;32.01;49.21;99197.72;5087890;28;20355;-83
2022/06/01 12:07:41;;;;;;;7.55;3.92;;;;;;;31.52;46.67;99187.06;5088199;28;20230;-83
2022/06/01 12:10:21;;;;;;;6.30;4.00;;;;;;;31.71;46.33;99188.38;5087915;28;20473;-80